createdAt,value
2023-08-25T00:01:40.014Z,97385.66
2023-08-25T00:04:06.852Z,97377.00
2023-08-25T00:06:33.634Z,97387.47
2023-08-25T00:09:00.432Z,97386.75
2023-08-25T00:11:27.231Z,97389.09
2023-08-25T00:13:54.017Z,97385.38
2023-08-25T00:16:20.851Z,97392.75
2023-08-25T00:18:48.914Z,97380.63
2023-08-25T00:21:16.008Z,97375.97
2023-08-25T00:23:42.817Z,97372.47
2023-08-25T00:26:09.584Z,97378.97
2023-08-25T00:28:36.728Z,97387.47
2023-08-25T00:31:03.817Z,97408.56
2023-08-25T00:33:30.733Z,97423.09
2023-08-25T00:35:57.590Z,97443.38
2023-08-25T00:38:29.393Z,97485.38
2023-08-25T00:41:00.238Z,97523.22
2023-08-25T00:43:27.910Z,97531.13
2023-08-25T00:45:54.833Z,97525.81
2023-08-25T00:48:21.707Z,97518.88
2023-08-25T00:50:49.545Z,97519.53
2023-08-25T00:53:16.455Z,97511.03
2023-08-25T00:55:43.329Z,97499.72
2023-08-25T00:58:10.763Z,97496.84
2023-08-25T01:00:38.107Z,97493.00
2023-08-25T01:03:05.416Z,97490.91
2023-08-25T01:05:32.358Z,97476.41
2023-08-25T01:08:00.026Z,97477.84
2023-08-25T01:10:46.147Z,97488.34
2023-08-25T01:13:21.346Z,97488.13
2023-08-25T01:15:53.816Z,97477.72
2023-08-25T01:18:26.380Z,97480.06
2023-08-25T01:20:55.973Z,97472.25
2023-08-25T01:23:31.761Z,97459.28
2023-08-25T01:25:59.445Z,97464.09
2023-08-25T01:28:26.872Z,97472.16
2023-08-25T01:33:25.466Z,97473.72
2023-08-25T01:36:07.261Z,97477.09
2023-08-25T01:38:41.958Z,97480.59
2023-08-25T01:41:20.651Z,97474.06
2023-08-25T01:43:52.368Z,97475.81
2023-08-25T01:46:20.539Z,97485.41
2023-08-25T01:48:51.069Z,97474.84
2023-08-25T01:51:18.241Z,97476.03
2023-08-25T01:53:45.426Z,97472.16
2023-08-25T01:56:14.046Z,97463.16
2023-08-25T01:58:40.844Z,97460.47
2023-08-25T02:01:07.674Z,97442.47
2023-08-25T02:03:34.502Z,97445.63
2023-08-25T02:06:01.382Z,97430.31
2023-08-25T02:08:28.226Z,97433.81
2023-08-25T02:10:55.130Z,97419.22
2023-08-25T02:13:23.959Z,97425.75
2023-08-25T02:15:53.153Z,97431.72
2023-08-25T02:18:20.002Z,97424.59
2023-08-25T02:20:46.967Z,97433.22
2023-08-25T02:23:14.061Z,97424.13
2023-08-25T02:25:42.478Z,97417.22
2023-08-25T02:28:10.027Z,97419.66
2023-08-25T02:30:36.821Z,97419.75
2023-08-25T02:33:03.926Z,97416.88
2023-08-25T02:35:30.695Z,97408.47
2023-08-25T02:38:05.544Z,97402.66
2023-08-25T02:40:33.939Z,97398.19
2023-08-25T02:43:02.656Z,97390.94
2023-08-25T02:45:29.720Z,97396.44
2023-08-25T02:47:58.046Z,97398.41
2023-08-25T02:50:25.578Z,97404.47
2023-08-25T02:52:53.180Z,97397.56
2023-08-25T02:55:22.631Z,97405.09
2023-08-25T02:57:51.538Z,97406.84
2023-08-25T03:00:27.250Z,97391.66
2023-08-25T03:02:55.879Z,97396.88
2023-08-25T03:05:23.979Z,97400.63
2023-08-25T03:07:55.199Z,97416.94
2023-08-25T03:10:24.145Z,97432.56
2023-08-25T03:12:52.511Z,97426.13
2023-08-25T03:15:19.434Z,97423.84
2023-08-25T03:17:46.473Z,97431.56
2023-08-25T03:20:13.254Z,97434.44
2023-08-25T03:22:40.238Z,97431.00
2023-08-25T03:25:07.878Z,97423.03
2023-08-25T03:27:36.055Z,97419.38
2023-08-25T03:30:03.613Z,97400.25
2023-08-25T03:32:31.693Z,97404.13
2023-08-25T03:34:58.570Z,97423.28
2023-08-25T03:37:25.786Z,97429.88
2023-08-25T03:39:53.396Z,97422.66
2023-08-25T03:42:20.863Z,97412.97
2023-08-25T03:44:49.331Z,97406.00
2023-08-25T03:47:16.213Z,97402.09
2023-08-25T03:49:43.025Z,97408.75
2023-08-25T03:52:10.157Z,97418.47
2023-08-25T03:54:37.077Z,97417.97
2023-08-25T03:57:08.031Z,97407.09
2023-08-25T03:59:35.088Z,97413.34
2023-08-25T04:02:05.040Z,97412.69
2023-08-25T04:04:33.203Z,97413.34
2023-08-25T04:07:00.291Z,97422.06
2023-08-25T04:09:27.999Z,97419.59
2023-08-25T04:11:58.250Z,97427.63
2023-08-25T04:14:25.358Z,97431.72
2023-08-25T04:16:52.381Z,97444.47
2023-08-25T04:19:22.547Z,97438.75
2023-08-25T04:21:50.782Z,97453.47
2023-08-25T04:24:18.053Z,97458.53
2023-08-25T04:26:45.163Z,97464.47
2023-08-25T04:29:12.668Z,97467.69
2023-08-25T04:31:41.150Z,97469.72
2023-08-25T04:34:09.479Z,97474.75
2023-08-25T04:36:38.501Z,97471.50
2023-08-25T04:39:05.342Z,97479.28
2023-08-25T04:41:32.961Z,97467.63
2023-08-25T04:44:00.348Z,97470.66
2023-08-25T04:46:29.659Z,97473.13
2023-08-25T04:48:58.072Z,97470.22
2023-08-25T04:51:25.613Z,97474.59
2023-08-25T04:53:52.830Z,97479.91
2023-08-25T04:56:20.241Z,97472.41
2023-08-25T04:58:47.143Z,97465.97
2023-08-25T05:01:15.467Z,97470.47
2023-08-25T05:03:43.826Z,97476.03
2023-08-25T05:06:12.568Z,97455.19
2023-08-25T05:08:39.458Z,97460.47
2023-08-25T05:11:07.357Z,97465.25
2023-08-25T05:13:34.199Z,97465.00
2023-08-25T05:16:03.440Z,97461.69
2023-08-25T05:18:50.501Z,97476.06
2023-08-25T05:21:17.366Z,97476.75
2023-08-25T05:23:48.599Z,97496.84
2023-08-25T05:26:16.797Z,97497.09
2023-08-25T05:28:52.854Z,97490.00
2023-08-25T05:31:19.806Z,97504.63
2023-08-25T05:34:05.842Z,97501.03
2023-08-25T05:36:35.482Z,97502.34
2023-08-25T05:39:03.580Z,97497.13
2023-08-25T05:41:30.545Z,97495.34
2023-08-25T05:43:57.588Z,97496.06
2023-08-25T05:46:24.423Z,97506.03
2023-08-25T05:48:51.328Z,97506.94
2023-08-25T05:51:18.219Z,97503.47
2023-08-25T05:53:45.775Z,97514.00
2023-08-25T05:56:12.586Z,97521.28
2023-08-25T05:58:39.337Z,97517.81
2023-08-25T06:01:06.162Z,97515.13
2023-08-25T06:03:33.463Z,97516.22
2023-08-25T06:06:00.307Z,97517.19
2023-08-25T06:08:27.569Z,97506.31
2023-08-25T06:10:54.993Z,97503.63
2023-08-25T06:13:21.856Z,97497.88
2023-08-25T06:15:50.144Z,97504.78
2023-08-25T06:18:17.524Z,97507.94
2023-08-25T06:20:44.409Z,97498.78
2023-08-25T06:23:12.985Z,97508.03
2023-08-25T06:25:39.845Z,97493.38
2023-08-25T06:28:06.907Z,97492.81
2023-08-25T06:30:37.197Z,97480.91
2023-08-25T06:33:04.058Z,97493.97
2023-08-25T06:35:30.863Z,97487.50
2023-08-25T06:37:57.664Z,97484.84
2023-08-25T06:40:24.552Z,97484.72
2023-08-25T06:42:51.382Z,97481.22
2023-08-25T06:45:18.211Z,97486.88
2023-08-25T06:47:47.004Z,97484.56
2023-08-25T06:50:15.626Z,97481.16
2023-08-25T06:52:42.542Z,97485.13
2023-08-25T06:55:09.501Z,97476.66
2023-08-25T06:57:36.726Z,97486.47
2023-08-25T07:00:06.358Z,97482.19
2023-08-25T07:02:33.385Z,97483.69
2023-08-25T07:05:00.293Z,97481.97
2023-08-25T07:07:27.710Z,97479.66
2023-08-25T07:09:55.231Z,97473.69
2023-08-25T07:12:22.044Z,97470.91
2023-08-25T07:14:49.072Z,97483.50
2023-08-25T07:17:15.828Z,97493.47
2023-08-25T07:19:42.643Z,97485.19
2023-08-25T07:22:09.841Z,97477.72
2023-08-25T07:24:36.737Z,97478.88
2023-08-25T07:27:03.586Z,97484.22
2023-08-25T07:29:30.479Z,97481.03
2023-08-25T07:31:58.012Z,97481.06
2023-08-25T07:34:24.864Z,97479.03
2023-08-25T07:36:53.902Z,97465.94
2023-08-25T07:39:21.019Z,97467.13
2023-08-25T07:41:47.794Z,97469.41
2023-08-25T07:44:14.949Z,97464.22
2023-08-25T07:46:41.838Z,97455.91
2023-08-25T07:49:11.410Z,97462.09
2023-08-25T07:51:40.765Z,97460.28
2023-08-25T07:54:08.651Z,97458.47
2023-08-25T07:56:35.500Z,97458.75
2023-08-25T07:59:02.400Z,97454.59
2023-08-25T08:01:29.312Z,97463.84
2023-08-25T08:03:56.175Z,97462.03
2023-08-25T08:06:22.972Z,97453.19
2023-08-25T08:08:49.901Z,97448.69
2023-08-25T08:11:16.716Z,97444.00
2023-08-25T08:13:43.644Z,97449.81
2023-08-25T08:16:10.514Z,97460.56
2023-08-25T08:18:37.444Z,97450.50
2023-08-25T08:21:04.297Z,97467.97
2023-08-25T08:23:31.100Z,97467.34
2023-08-25T08:25:59.608Z,97465.03
2023-08-25T08:28:26.621Z,97460.19
2023-08-25T08:30:53.476Z,97452.72
2023-08-25T08:33:20.362Z,97463.63
2023-08-25T08:35:47.286Z,97468.44
2023-08-25T08:38:14.130Z,97471.91
2023-08-25T08:40:41.836Z,97461.53
2023-08-25T08:43:15.988Z,97455.13
2023-08-25T08:45:44.483Z,97458.06
2023-08-25T08:48:13.637Z,97463.53
2023-08-25T08:50:40.923Z,97460.38
2023-08-25T08:53:09.325Z,97463.31
2023-08-25T08:55:36.727Z,97463.16
2023-08-25T08:58:05.244Z,97456.22
2023-08-25T09:00:32.924Z,97462.66
2023-08-25T09:03:06.052Z,97461.78
2023-08-25T09:05:35.765Z,97467.88
2023-08-25T09:08:08.790Z,97457.66
2023-08-25T09:10:35.758Z,97465.00
2023-08-25T09:13:03.318Z,97446.88
2023-08-25T09:15:34.338Z,97452.25
2023-08-25T09:18:08.995Z,97441.66
2023-08-25T09:20:40.085Z,97440.91
2023-08-25T09:23:09.308Z,97436.25
2023-08-25T09:25:36.427Z,97435.53
2023-08-25T09:28:04.951Z,97433.94
2023-08-25T09:30:36.748Z,97440.25
2023-08-25T09:33:09.584Z,97430.06
2023-08-25T09:35:37.141Z,97434.78
2023-08-25T09:38:04.468Z,97431.75
2023-08-25T09:40:32.501Z,97440.66
2023-08-25T09:43:05.238Z,97436.31
2023-08-25T09:45:34.251Z,97438.69
2023-08-25T09:48:17.674Z,97437.31
2023-08-25T09:50:45.718Z,97424.28
2023-08-25T09:53:16.231Z,97429.72
2023-08-25T09:55:43.633Z,97425.28
2023-08-25T09:58:13.315Z,97426.97
2023-08-25T10:00:41.238Z,97424.72
2023-08-25T10:03:10.379Z,97425.53
2023-08-25T10:05:42.706Z,97441.41
2023-08-25T10:08:10.561Z,97429.22
2023-08-25T10:10:39.546Z,97427.06
2023-08-25T10:13:08.991Z,97417.97
2023-08-25T10:15:38.431Z,97420.84
2023-08-25T10:18:08.668Z,97416.47
2023-08-25T10:20:37.326Z,97410.50
2023-08-25T10:23:11.033Z,97409.47
2023-08-25T10:25:39.573Z,97400.47
2023-08-25T10:28:09.414Z,97410.06
2023-08-25T10:30:37.181Z,97416.22
2023-08-25T10:33:10.326Z,97414.22
2023-08-25T10:35:50.538Z,97416.09
2023-08-25T10:38:20.519Z,97402.72
2023-08-25T10:40:55.118Z,97409.56
2023-08-25T10:43:33.652Z,97412.34
2023-08-25T10:46:08.603Z,97403.41
2023-08-25T10:48:37.689Z,97400.31
2023-08-25T10:51:12.038Z,97401.41
2023-08-25T10:53:43.258Z,97395.41
2023-08-25T10:56:18.292Z,97399.44
2023-08-25T10:59:06.586Z,97402.44
2023-08-25T11:01:58.953Z,97397.13
2023-08-25T11:04:28.995Z,97391.59
2023-08-25T11:07:00.289Z,97389.34
2023-08-25T11:09:53.283Z,97385.59
2023-08-25T11:12:26.046Z,97379.28
2023-08-25T11:14:52.871Z,97378.16
2023-08-25T11:17:19.717Z,97369.00
2023-08-25T11:19:47.100Z,97370.81
2023-08-25T11:22:14.026Z,97371.69
2023-08-25T11:24:41.154Z,97368.06
2023-08-25T11:27:12.044Z,97363.16
2023-08-25T11:29:46.156Z,97366.34
2023-08-25T11:32:14.551Z,97370.97
2023-08-25T11:34:41.681Z,97366.50
2023-08-25T11:37:13.183Z,97363.81
2023-08-25T11:39:43.820Z,97360.09
2023-08-25T11:42:10.834Z,97349.28
2023-08-25T11:44:44.522Z,97357.31
2023-08-25T11:47:11.526Z,97362.09
2023-08-25T11:49:40.045Z,97354.91
2023-08-25T11:52:08.009Z,97343.19
2023-08-25T11:54:50.738Z,97340.63
2023-08-25T11:57:18.306Z,97339.88
2023-08-25T11:59:48.704Z,97345.91
2023-08-25T12:02:19.584Z,97349.78
2023-08-25T12:05:12.446Z,97347.00
2023-08-25T12:07:39.251Z,97342.00
2023-08-25T12:10:06.495Z,97339.59
2023-08-25T12:12:39.333Z,97346.00
2023-08-25T12:15:10.130Z,97347.16
2023-08-25T12:17:38.003Z,97341.63
2023-08-25T12:20:18.825Z,97338.16
2023-08-25T12:22:52.321Z,97339.78
2023-08-25T12:25:19.162Z,97328.81
2023-08-25T12:27:46.021Z,97323.22
2023-08-25T12:30:13.370Z,97314.94
2023-08-25T12:32:40.667Z,97317.22
2023-08-25T12:35:07.779Z,97317.84
2023-08-25T12:37:34.665Z,97315.91
2023-08-25T12:40:01.525Z,97310.09
2023-08-25T12:42:28.402Z,97309.69
2023-08-25T12:44:55.168Z,97304.63
2023-08-25T12:47:21.956Z,97306.63
2023-08-25T12:49:48.831Z,97302.53
2023-08-25T12:52:18.157Z,97304.59
2023-08-25T12:54:45.131Z,97294.81
2023-08-25T12:57:11.894Z,97289.63
2023-08-25T12:59:39.550Z,97284.34
2023-08-25T13:02:06.740Z,97280.19
2023-08-25T13:04:33.508Z,97283.91
2023-08-25T13:07:00.401Z,97280.78
2023-08-25T13:09:27.170Z,97280.66
2023-08-25T13:11:53.959Z,97282.38
2023-08-25T13:14:21.590Z,97281.16
2023-08-25T13:16:48.416Z,97281.72
2023-08-25T13:19:15.425Z,97275.00
2023-08-25T13:21:42.259Z,97273.47
2023-08-25T13:24:09.904Z,97275.81
2023-08-25T13:26:37.403Z,97276.34
2023-08-25T13:29:04.960Z,97262.72
2023-08-25T13:31:32.095Z,97256.59
2023-08-25T13:33:58.927Z,97263.94
2023-08-25T13:36:25.747Z,97277.19
2023-08-25T13:38:52.529Z,97260.88
2023-08-25T13:41:19.628Z,97264.53
2023-08-25T13:43:46.481Z,97265.00
2023-08-25T13:46:13.422Z,97253.75
2023-08-25T13:48:40.346Z,97258.59
2023-08-25T13:51:07.199Z,97258.31
2023-08-25T13:53:34.075Z,97260.50
2023-08-25T13:56:02.223Z,97255.78
2023-08-25T13:58:29.735Z,97261.19
2023-08-25T14:00:56.562Z,97247.69
2023-08-25T14:03:25.623Z,97248.28
2023-08-25T14:05:52.651Z,97247.38
2023-08-25T14:08:19.592Z,97234.59
2023-08-25T14:10:46.442Z,97245.28
2023-08-25T14:13:13.319Z,97234.69
2023-08-25T14:15:40.151Z,97239.19
2023-08-25T14:18:07.482Z,97238.47
2023-08-25T14:20:34.365Z,97240.88
2023-08-25T14:23:04.019Z,97234.22
2023-08-25T14:25:31.337Z,97234.41
2023-08-25T14:28:00.364Z,97231.66
2023-08-25T14:30:27.352Z,97229.34
2023-08-25T14:32:54.253Z,97229.00
2023-08-25T14:35:21.094Z,97231.56
2023-08-25T14:37:47.870Z,97230.41
2023-08-25T14:40:14.715Z,97230.44
2023-08-25T14:42:41.515Z,97226.69
2023-08-25T14:45:08.937Z,97229.69
2023-08-25T14:47:35.948Z,97230.41
2023-08-25T14:50:02.792Z,97227.03
2023-08-25T14:52:30.118Z,97219.84
2023-08-25T14:54:57.061Z,97217.84
2023-08-25T14:57:23.873Z,97224.28
2023-08-25T14:59:51.978Z,97211.00
2023-08-25T15:02:19.403Z,97218.56
2023-08-25T15:04:46.320Z,97216.16
2023-08-25T15:07:13.136Z,97220.72
2023-08-25T15:09:42.793Z,97216.34
2023-08-25T15:12:09.639Z,97215.31
2023-08-25T15:14:36.460Z,97221.03
2023-08-25T15:17:03.354Z,97224.59
2023-08-25T15:19:30.148Z,97229.25
2023-08-25T15:21:57.012Z,97236.03
2023-08-25T15:24:23.777Z,97234.25
2023-08-25T15:26:50.579Z,97233.72
2023-08-25T15:29:17.390Z,97227.56
2023-08-25T15:31:44.295Z,97229.41
2023-08-25T15:34:11.538Z,97223.63
2023-08-25T15:36:38.479Z,97219.47
2023-08-25T15:39:05.499Z,97219.94
2023-08-25T15:41:37.557Z,97226.00
2023-08-25T15:44:05.033Z,97215.19
2023-08-25T15:46:31.857Z,97213.91
2023-08-25T15:48:58.825Z,97208.72
2023-08-25T15:51:25.704Z,97206.78
2023-08-25T15:53:52.465Z,97216.88
2023-08-25T15:56:19.624Z,97214.50
2023-08-25T15:58:46.477Z,97200.81
2023-08-25T16:01:13.628Z,97202.91
2023-08-25T16:03:40.672Z,97206.22
2023-08-25T16:06:08.442Z,97202.31
2023-08-25T16:08:35.255Z,97194.00
2023-08-25T16:11:03.905Z,97195.59
2023-08-25T16:13:31.517Z,97185.69
2023-08-25T16:15:59.169Z,97189.16
2023-08-25T16:18:26.276Z,97181.13
2023-08-25T16:20:53.449Z,97184.22
2023-08-25T16:23:20.528Z,97188.50
2023-08-25T16:25:47.466Z,97192.38
2023-08-25T16:28:14.327Z,97193.50
2023-08-25T16:30:41.228Z,97201.97
2023-08-25T16:33:08.175Z,97207.69
2023-08-25T16:35:35.122Z,97211.59
2023-08-25T16:38:04.468Z,97215.44
2023-08-25T16:40:31.348Z,97213.28
2023-08-25T16:43:01.112Z,97219.31
2023-08-25T16:45:29.114Z,97222.00
2023-08-25T16:47:57.524Z,97223.13
2023-08-25T16:50:25.769Z,97216.88
2023-08-25T16:52:53.004Z,97215.81
2023-08-25T16:55:20.155Z,97212.06
2023-08-25T16:57:47.037Z,97211.28
2023-08-25T17:00:14.310Z,97227.81
2023-08-25T17:02:41.196Z,97223.75
2023-08-25T17:05:08.370Z,97235.41
2023-08-25T17:07:49.991Z,97227.88
2023-08-25T17:10:18.246Z,97231.94
2023-08-25T17:12:45.830Z,97231.94
2023-08-25T17:15:14.707Z,97228.13
2023-08-25T17:17:41.541Z,97233.00
2023-08-25T17:20:11.149Z,97245.75
2023-08-25T17:22:39.355Z,97243.06
2023-08-25T17:25:12.393Z,97245.78
2023-08-25T17:27:40.637Z,97237.94
2023-08-25T17:30:11.878Z,97238.50
2023-08-25T17:32:40.239Z,97234.16
2023-08-25T17:35:07.461Z,97240.66
2023-08-25T17:37:34.359Z,97235.44
2023-08-25T17:40:02.253Z,97224.88
2023-08-25T17:42:29.377Z,97216.22
2023-08-25T17:44:56.839Z,97225.38
2023-08-25T17:47:24.502Z,97231.25
2023-08-25T17:49:53.035Z,97234.75
2023-08-25T17:52:20.025Z,97240.41
2023-08-25T17:54:46.801Z,97244.44
2023-08-25T17:57:15.719Z,97251.28
2023-08-25T17:59:43.250Z,97257.16
2023-08-25T18:02:11.378Z,97275.75
2023-08-25T18:04:39.749Z,97274.97
2023-08-25T18:07:07.189Z,97268.97
2023-08-25T18:09:34.185Z,97280.53
2023-08-25T18:12:04.013Z,97283.00
2023-08-25T18:14:30.799Z,97279.75
2023-08-25T18:16:57.655Z,97271.84
2023-08-25T18:19:24.470Z,97276.34
2023-08-25T18:21:51.426Z,97279.25
2023-08-25T18:24:18.383Z,97271.38
2023-08-25T18:26:45.345Z,97280.31
2023-08-25T18:29:12.543Z,97283.81
2023-08-25T18:31:39.618Z,97283.81
2023-08-25T18:34:06.963Z,97282.69
2023-08-25T18:36:33.944Z,97279.38
2023-08-25T18:39:01.535Z,97287.22
2023-08-25T18:41:28.576Z,97292.22
2023-08-25T18:43:55.772Z,97299.19
2023-08-25T18:46:23.040Z,97305.63
2023-08-25T18:48:49.978Z,97305.63
2023-08-25T18:51:16.959Z,97298.31
2023-08-25T18:53:43.873Z,97288.66
2023-08-25T18:56:12.750Z,97281.44
2023-08-25T18:58:39.850Z,97284.03
2023-08-25T19:01:06.882Z,97274.09
2023-08-25T19:03:33.836Z,97279.41
2023-08-25T19:06:05.063Z,97263.50
2023-08-25T19:08:32.984Z,97268.13
2023-08-25T19:11:00.611Z,97254.34
2023-08-25T19:13:28.673Z,97256.22
2023-08-25T19:15:57.212Z,97269.66
2023-08-25T19:18:24.462Z,97290.66
2023-08-25T19:20:51.329Z,97299.31
2023-08-25T19:23:18.414Z,97279.13
2023-08-25T19:25:52.980Z,97262.53
2023-08-25T19:28:20.021Z,97256.03
2023-08-25T19:30:47.576Z,97262.28
2023-08-25T19:33:14.913Z,97274.44
2023-08-25T19:35:42.491Z,97273.41
2023-08-25T19:38:10.705Z,97293.75
2023-08-25T19:40:37.631Z,97294.59
2023-08-25T19:43:04.635Z,97289.78
2023-08-25T19:45:31.494Z,97276.97
2023-08-25T19:47:58.395Z,97282.38
2023-08-25T19:50:25.516Z,97291.47
2023-08-25T19:52:52.455Z,97310.06
2023-08-25T19:55:19.271Z,97312.00
2023-08-25T19:57:46.115Z,97320.44
2023-08-25T20:00:13.700Z,97311.31
2023-08-25T20:02:40.816Z,97310.69
2023-08-25T20:05:08.494Z,97330.13
2023-08-25T20:07:36.266Z,97328.94
2023-08-25T20:10:06.118Z,97331.25
2023-08-25T20:12:37.080Z,97380.50
2023-08-25T20:15:04.177Z,97463.94
2023-08-25T20:17:31.009Z,97458.13
2023-08-25T20:19:57.816Z,97449.16
2023-08-25T20:22:24.618Z,97419.19
2023-08-25T20:24:51.411Z,97462.59
2023-08-25T20:27:18.216Z,97482.38
2023-08-25T20:29:45.066Z,97481.78
2023-08-25T20:32:13.093Z,97463.97
2023-08-25T20:34:39.904Z,97414.19
2023-08-25T20:37:06.714Z,97383.78
2023-08-25T20:39:33.500Z,97401.47
2023-08-25T20:42:00.316Z,97394.38
2023-08-25T20:44:27.148Z,97410.44
2023-08-25T20:46:53.969Z,97411.91
2023-08-25T20:49:20.764Z,97430.28
2023-08-25T20:51:47.577Z,97428.44
2023-08-25T20:54:14.448Z,97413.03
2023-08-25T20:56:41.225Z,97398.38
2023-08-25T20:59:08.016Z,97388.44
2023-08-25T21:01:35.301Z,97383.09
2023-08-25T21:04:02.370Z,97369.38
2023-08-25T21:06:33.951Z,97367.88
2023-08-25T21:09:01.002Z,97395.41
2023-08-25T21:11:28.926Z,97419.47
2023-08-25T21:13:58.334Z,97407.13
2023-08-25T21:16:26.163Z,97405.06
2023-08-25T21:18:53.095Z,97397.28
2023-08-25T21:21:20.026Z,97396.84
2023-08-25T21:23:48.823Z,97390.09
2023-08-25T21:26:15.669Z,97375.94
2023-08-25T21:28:43.128Z,97379.19
2023-08-25T21:31:09.951Z,97375.28
2023-08-25T21:33:36.808Z,97379.09
2023-08-25T21:36:04.260Z,97375.91
2023-08-25T21:38:31.920Z,97357.22
2023-08-25T21:41:00.292Z,97350.84
2023-08-25T21:43:27.981Z,97348.34
2023-08-25T21:45:54.850Z,97355.38
2023-08-25T21:48:21.699Z,97342.41
2023-08-25T21:50:48.692Z,97345.72
2023-08-25T21:53:15.496Z,97337.22
2023-08-25T21:55:44.238Z,97347.06
2023-08-25T21:58:11.193Z,97341.38
2023-08-25T22:00:39.217Z,97344.28
2023-08-25T22:03:06.122Z,97330.53
2023-08-25T22:05:32.983Z,97333.19
2023-08-25T22:07:59.775Z,97334.63
2023-08-25T22:10:26.666Z,97339.94
2023-08-25T22:12:54.749Z,97333.75
2023-08-25T22:15:22.758Z,97323.09
2023-08-25T22:17:49.616Z,97332.28
2023-08-25T22:20:16.564Z,97328.91
2023-08-25T22:22:43.441Z,97339.78
2023-08-25T22:25:10.639Z,97336.06
2023-08-25T22:27:38.494Z,97342.16
2023-08-25T22:30:05.950Z,97332.50
2023-08-25T22:35:03.959Z,97338.84
2023-08-25T22:37:30.825Z,97343.09
2023-08-25T22:39:57.671Z,97333.63
2023-08-25T22:42:24.447Z,97345.50
2023-08-25T22:44:51.641Z,97339.72
2023-08-25T22:47:18.513Z,97338.03
2023-08-25T22:49:45.285Z,97337.25
2023-08-25T22:52:12.096Z,97335.63
2023-08-25T22:54:38.905Z,97332.31
2023-08-25T22:57:05.699Z,97324.63
2023-08-25T22:59:32.554Z,97325.69
2023-08-25T23:02:01.168Z,97330.06
2023-08-25T23:04:28.923Z,97322.66
2023-08-25T23:06:55.723Z,97322.44
2023-08-25T23:09:22.598Z,97312.56
2023-08-25T23:11:49.437Z,97306.19
2023-08-25T23:14:16.315Z,97316.00
2023-08-25T23:16:43.116Z,97317.13
2023-08-25T23:19:10.112Z,97316.19
2023-08-25T23:21:37.013Z,97307.41
2023-08-25T23:24:04.077Z,97303.06
2023-08-25T23:26:30.936Z,97303.31
2023-08-25T23:28:57.747Z,97306.66
2023-08-25T23:31:24.560Z,97308.06
2023-08-25T23:33:51.323Z,97307.25
2023-08-25T23:36:18.123Z,97290.81
2023-08-25T23:38:44.866Z,97288.56
2023-08-25T23:41:11.800Z,97292.06
2023-08-25T23:43:38.616Z,97288.00
2023-08-25T23:46:07.719Z,97277.53
2023-08-25T23:48:35.663Z,97284.94
2023-08-25T23:51:02.559Z,97281.66
2023-08-25T23:53:29.327Z,97283.69
2023-08-25T23:55:56.308Z,97279.59
2023-08-25T23:58:23.063Z,97289.50
